createdAt,value
2017-11-23T00:00:09.542Z,1002.39
2017-11-23T00:00:50.105Z,1002.38
2017-11-23T00:01:30.681Z,1002.38
2017-11-23T00:02:11.302Z,1002.35
2017-11-23T00:02:51.895Z,1002.34
2017-11-23T00:03:32.488Z,1002.32
2017-11-23T00:04:13.079Z,1002.29
2017-11-23T00:04:53.633Z,1002.34
2017-11-23T00:05:34.236Z,1002.3
2017-11-23T00:06:14.811Z,1002.26
2017-11-23T00:06:55.410Z,1002.27
2017-11-23T00:07:35.981Z,1002.29
2017-11-23T00:08:16.531Z,1002.32
2017-11-23T00:08:57.094Z,1002.33
2017-11-23T00:09:37.661Z,1002.36
2017-11-23T00:10:18.222Z,1002.35
2017-11-23T00:10:58.794Z,1002.33
2017-11-23T00:11:39.348Z,1002.31
2017-11-23T00:12:19.900Z,1002.33
2017-11-23T00:13:00.480Z,1002.37
2017-11-23T00:13:41.071Z,1002.31
2017-11-23T00:14:21.615Z,1002.28
2017-11-23T00:15:02.179Z,1002.32
2017-11-23T00:15:42.760Z,1002.33
2017-11-23T00:16:23.378Z,1002.32
2017-11-23T00:17:03.971Z,1002.31
2017-11-23T00:17:44.556Z,1002.35
2017-11-23T00:18:25.141Z,1002.31
2017-11-23T00:19:05.735Z,1002.33
2017-11-23T00:19:46.304Z,1002.32
2017-11-23T00:20:26.870Z,1002.31
2017-11-23T00:21:07.491Z,1002.27
2017-11-23T00:21:48.075Z,1002.27
2017-11-23T00:22:28.647Z,1002.3
2017-11-23T00:23:09.224Z,1002.3
2017-11-23T00:23:49.829Z,1002.33
2017-11-23T00:24:30.387Z,1002.3
2017-11-23T00:25:10.971Z,1002.36
2017-11-23T00:25:51.567Z,1002.35
2017-11-23T00:26:32.132Z,1002.34
2017-11-23T00:27:12.724Z,1002.36
2017-11-23T00:27:53.310Z,1002.34
2017-11-23T00:28:33.866Z,1002.36
2017-11-23T00:29:14.445Z,1002.34
2017-11-23T00:29:55.026Z,1002.38
2017-11-23T00:30:35.598Z,1002.37
2017-11-23T00:31:16.174Z,1002.35
2017-11-23T00:31:56.749Z,1002.43
2017-11-23T00:32:37.320Z,1002.37
2017-11-23T00:33:17.898Z,1002.38
2017-11-23T00:33:58.465Z,1002.39
2017-11-23T00:34:39.051Z,1002.39
2017-11-23T00:35:19.630Z,1002.38
2017-11-23T00:36:00.203Z,1002.39
2017-11-23T00:36:40.748Z,1002.4
2017-11-23T00:37:21.354Z,1002.41
2017-11-23T00:38:01.904Z,1002.42
2017-11-23T00:38:42.448Z,1002.37
2017-11-23T00:39:23.027Z,1002.45
2017-11-23T00:40:03.616Z,1002.39
2017-11-23T00:40:44.207Z,1002.41
2017-11-23T00:41:24.800Z,1002.39
2017-11-23T00:42:05.362Z,1002.37
2017-11-23T00:42:46.018Z,1002.39
2017-11-23T00:43:26.677Z,1002.42
2017-11-23T00:44:07.252Z,1002.38
2017-11-23T00:44:47.826Z,1002.39
2017-11-23T00:45:28.404Z,1002.4
2017-11-23T00:46:08.987Z,1002.39
2017-11-23T00:46:49.552Z,1002.37
2017-11-23T00:47:30.115Z,1002.4
2017-11-23T00:48:10.726Z,1002.42
2017-11-23T00:48:51.304Z,1002.39
2017-11-23T00:49:31.885Z,1002.4
2017-11-23T00:50:12.482Z,1002.4
2017-11-23T00:50:53.031Z,1002.38
2017-11-23T00:51:33.583Z,1002.38
2017-11-23T00:52:14.137Z,1002.35
2017-11-23T00:52:54.739Z,1002.4
2017-11-23T00:53:35.290Z,1002.33
2017-11-23T00:54:15.853Z,1002.36
2017-11-23T00:54:56.422Z,1002.42
2017-11-23T00:55:37.048Z,1002.4
2017-11-23T00:56:17.596Z,1002.42
2017-11-23T00:56:58.170Z,1002.41
2017-11-23T00:57:38.735Z,1002.41
2017-11-23T00:58:19.298Z,1002.41
2017-11-23T00:58:59.867Z,1002.4
2017-11-23T00:59:40.427Z,1002.39
2017-11-23T01:00:21.013Z,1002.39
2017-11-23T01:01:01.579Z,1002.35
2017-11-23T01:01:42.183Z,1002.33
2017-11-23T01:02:22.742Z,1002.43
2017-11-23T01:03:03.351Z,1002.37
2017-11-23T01:03:43.923Z,1002.34
2017-11-23T01:04:24.492Z,1002.36
2017-11-23T01:05:05.073Z,1002.31
2017-11-23T01:05:45.662Z,1002.37
2017-11-23T01:06:26.230Z,1002.3
2017-11-23T01:07:06.798Z,1002.28
2017-11-23T01:07:47.356Z,1002.32
2017-11-23T01:08:27.958Z,1002.26
2017-11-23T01:09:08.545Z,1002.27
2017-11-23T01:09:49.123Z,1002.25
2017-11-23T01:10:29.703Z,1002.28
2017-11-23T01:11:10.272Z,1002.27
2017-11-23T01:11:50.845Z,1002.17
2017-11-23T01:12:31.421Z,1002.28
2017-11-23T01:13:11.966Z,1002.22
2017-11-23T01:13:52.535Z,1002.23
2017-11-23T01:14:33.111Z,1002.28
2017-11-23T01:15:13.726Z,1002.24
2017-11-23T01:15:54.282Z,1002.19
2017-11-23T01:16:34.885Z,1002.23
2017-11-23T01:17:15.477Z,1002.21
2017-11-23T01:17:56.053Z,1002.19
2017-11-23T01:18:36.649Z,1002.17
2017-11-23T01:19:17.174Z,1002.2
2017-11-23T01:19:57.780Z,1002.19
2017-11-23T01:20:38.346Z,1002.2
2017-11-23T01:21:18.914Z,1002.23
2017-11-23T01:21:59.482Z,1002.19
2017-11-23T01:22:40.054Z,1002.19
2017-11-23T01:23:20.622Z,1002.24
2017-11-23T01:24:01.211Z,1002.21
2017-11-23T01:24:41.782Z,1002.24
2017-11-23T01:25:22.365Z,1002.22
2017-11-23T01:26:02.988Z,1002.21
2017-11-23T01:26:43.609Z,1002.14
2017-11-23T01:27:24.214Z,1002.18
2017-11-23T01:28:04.769Z,1002.21
2017-11-23T01:28:45.373Z,1002.17
2017-11-23T01:29:25.961Z,1002.17
2017-11-23T01:30:06.540Z,1002.18
2017-11-23T01:30:47.098Z,1002.17
2017-11-23T01:31:27.699Z,1002.14
2017-11-23T01:32:08.293Z,1002.15
2017-11-23T01:32:48.882Z,1002.09
2017-11-23T01:33:29.456Z,1002.06
2017-11-23T01:34:09.977Z,1002.05
2017-11-23T01:34:50.531Z,1002.08
2017-11-23T01:35:31.126Z,1002.03
2017-11-23T01:36:11.691Z,1002.02
2017-11-23T01:36:52.270Z,1002.04
2017-11-23T01:37:32.836Z,1002.06
2017-11-23T01:38:13.393Z,1002.04
2017-11-23T01:38:54.026Z,1002.06
2017-11-23T01:39:34.569Z,1002.05
2017-11-23T01:40:15.236Z,1002.09
2017-11-23T01:40:55.800Z,1002.09
2017-11-23T01:41:36.344Z,1002.07
2017-11-23T01:42:16.923Z,1002.07
2017-11-23T01:42:57.472Z,1002.1
2017-11-23T01:43:38.078Z,1002.06
2017-11-23T01:44:18.634Z,1002.05
2017-11-23T01:44:59.208Z,1002.02
2017-11-23T01:45:39.776Z,1002.03
2017-11-23T01:46:20.383Z,1002.05
2017-11-23T01:47:00.974Z,1002
2017-11-23T01:47:41.537Z,1002.05
2017-11-23T01:48:22.104Z,1002.02
2017-11-23T01:49:02.690Z,1001.97
2017-11-23T01:49:43.254Z,1001.98
2017-11-23T01:50:23.813Z,1002.02
2017-11-23T01:51:04.487Z,1002
2017-11-23T01:51:45.085Z,1001.97
2017-11-23T01:52:25.646Z,1001.92
2017-11-23T01:53:06.322Z,1001.93
2017-11-23T01:53:46.916Z,1001.89
2017-11-23T01:54:27.494Z,1001.92
2017-11-23T01:55:08.053Z,1001.91
2017-11-23T01:55:48.637Z,1001.93
2017-11-23T01:56:29.240Z,1001.89
2017-11-23T01:57:09.806Z,1001.9
2017-11-23T01:57:50.378Z,1001.92
2017-11-23T01:58:30.969Z,1001.87
2017-11-23T01:59:11.528Z,1001.84
2017-11-23T01:59:52.177Z,1001.84
2017-11-23T02:00:32.768Z,1001.87
2017-11-23T02:01:13.340Z,1001.85
2017-11-23T02:01:53.932Z,1001.89
2017-11-23T02:02:34.643Z,1001.86
2017-11-23T02:03:15.211Z,1001.84
2017-11-23T02:03:55.808Z,1001.81
2017-11-23T02:04:36.387Z,1001.82
2017-11-23T02:05:16.964Z,1001.83
2017-11-23T02:05:57.602Z,1001.77
2017-11-23T02:06:38.192Z,1001.79
2017-11-23T02:07:18.747Z,1001.79
2017-11-23T02:07:59.322Z,1001.74
2017-11-23T02:08:39.888Z,1001.74
2017-11-23T02:09:20.473Z,1001.72
2017-11-23T02:10:01.019Z,1001.74
2017-11-23T02:10:41.592Z,1001.67
2017-11-23T02:11:22.159Z,1001.67
2017-11-23T02:12:02.828Z,1001.67
2017-11-23T02:12:43.433Z,1001.65
2017-11-23T02:13:24.121Z,1001.68
2017-11-23T02:14:04.703Z,1001.64
2017-11-23T02:14:45.318Z,1001.63
2017-11-23T02:15:25.900Z,1001.66
2017-11-23T02:16:06.477Z,1001.67
2017-11-23T02:16:47.037Z,1001.67
2017-11-23T02:17:27.599Z,1001.62
2017-11-23T02:18:08.164Z,1001.71
2017-11-23T02:18:48.806Z,1001.66
2017-11-23T02:19:29.369Z,1001.68
2017-11-23T02:20:09.949Z,1001.65
2017-11-23T02:20:50.545Z,1001.63
2017-11-23T02:21:31.104Z,1001.66
2017-11-23T02:22:11.678Z,1001.63
2017-11-23T02:22:52.267Z,1001.66
2017-11-23T02:23:32.842Z,1001.61
2017-11-23T02:24:13.408Z,1001.64
2017-11-23T02:24:53.966Z,1001.65
2017-11-23T02:25:34.535Z,1001.65
2017-11-23T02:26:15.101Z,1001.58
2017-11-23T02:26:55.663Z,1001.58
2017-11-23T02:27:36.228Z,1001.57
2017-11-23T02:28:16.797Z,1001.59
2017-11-23T02:28:57.356Z,1001.58
2017-11-23T02:29:37.918Z,1001.51
2017-11-23T02:30:18.492Z,1001.51
2017-11-23T02:30:59.065Z,1001.55
2017-11-23T02:31:39.684Z,1001.53
2017-11-23T02:32:20.317Z,1001.48
2017-11-23T02:33:00.914Z,1001.52
2017-11-23T02:33:41.523Z,1001.49
2017-11-23T02:34:22.104Z,1001.5
2017-11-23T02:35:02.710Z,1001.48
2017-11-23T02:35:43.322Z,1001.49
2017-11-23T02:36:23.881Z,1001.49
2017-11-23T02:37:04.437Z,1001.5
2017-11-23T02:37:45.026Z,1001.44
2017-11-23T02:38:25.591Z,1001.49
2017-11-23T02:39:06.185Z,1001.43
2017-11-23T02:39:46.742Z,1001.46
2017-11-23T02:40:27.302Z,1001.46
2017-11-23T02:41:07.879Z,1001.43
2017-11-23T02:41:48.446Z,1001.45
2017-11-23T02:42:29.088Z,1001.45
2017-11-23T02:43:09.692Z,1001.44
2017-11-23T02:43:50.273Z,1001.44
2017-11-23T02:44:30.883Z,1001.4
2017-11-23T02:45:11.503Z,1001.43
2017-11-23T02:45:52.120Z,1001.44
2017-11-23T02:46:32.694Z,1001.43
2017-11-23T02:47:13.290Z,1001.38
2017-11-23T02:47:53.868Z,1001.4
2017-11-23T02:48:34.463Z,1001.41
2017-11-23T02:49:15.023Z,1001.37
2017-11-23T02:49:55.611Z,1001.41
2017-11-23T02:50:36.187Z,1001.35
2017-11-23T02:51:16.745Z,1001.36
2017-11-23T02:51:57.305Z,1001.38
2017-11-23T02:52:37.893Z,1001.36
2017-11-23T02:53:18.482Z,1001.37
2017-11-23T02:53:59.041Z,1001.37
2017-11-23T02:54:39.601Z,1001.36
2017-11-23T02:55:20.194Z,1001.28
2017-11-23T02:56:00.784Z,1001.28
2017-11-23T02:56:41.349Z,1001.3
2017-11-23T02:57:21.923Z,1001.28
2017-11-23T02:58:02.513Z,1001.22
2017-11-23T02:58:43.100Z,1001.27
2017-11-23T02:59:23.688Z,1001.27
2017-11-23T03:00:04.277Z,1001.29
2017-11-23T03:00:44.843Z,1001.25
2017-11-23T03:01:25.404Z,1001.29
2017-11-23T03:02:06.000Z,1001.3
2017-11-23T03:02:46.587Z,1001.29
2017-11-23T03:03:27.155Z,1001.32
2017-11-23T03:04:07.722Z,1001.35
2017-11-23T03:04:48.297Z,1001.32
2017-11-23T03:05:28.862Z,1001.3
2017-11-23T03:06:09.432Z,1001.32
2017-11-23T03:06:50.038Z,1001.3
2017-11-23T03:07:30.604Z,1001.34
2017-11-23T03:08:11.195Z,1001.38
2017-11-23T03:08:51.755Z,1001.35
2017-11-23T03:09:32.353Z,1001.36
2017-11-23T03:10:12.945Z,1001.36
2017-11-23T03:10:53.527Z,1001.39
2017-11-23T03:11:34.162Z,1001.32
2017-11-23T03:12:14.728Z,1001.33
2017-11-23T03:12:55.286Z,1001.29
2017-11-23T03:13:35.871Z,1001.31
2017-11-23T03:14:16.428Z,1001.28
2017-11-23T03:14:56.998Z,1001.26
2017-11-23T03:15:37.559Z,1001.31
2017-11-23T03:16:18.139Z,1001.24
2017-11-23T03:16:58.692Z,1001.23
2017-11-23T03:17:39.254Z,1001.26
2017-11-23T03:18:19.833Z,1001.23
2017-11-23T03:19:00.421Z,1001.26
2017-11-23T03:19:40.984Z,1001.25
2017-11-23T03:20:21.543Z,1001.27
2017-11-23T03:21:02.105Z,1001.28
2017-11-23T03:21:42.693Z,1001.29
2017-11-23T03:22:23.259Z,1001.31
2017-11-23T03:23:03.819Z,1001.31
2017-11-23T03:23:44.389Z,1001.35
2017-11-23T03:24:24.947Z,1001.31
2017-11-23T03:25:05.553Z,1001.32
2017-11-23T03:25:46.115Z,1001.31
2017-11-23T03:26:26.684Z,1001.31
2017-11-23T03:27:07.257Z,1001.29
2017-11-23T03:27:47.818Z,1001.29
2017-11-23T03:28:28.391Z,1001.25
2017-11-23T03:29:08.967Z,1001.25
2017-11-23T03:29:49.559Z,1001.25
2017-11-23T03:30:30.124Z,1001.29
2017-11-23T03:31:10.727Z,1001.27
2017-11-23T03:31:51.351Z,1001.25
2017-11-23T03:32:31.903Z,1001.25
2017-11-23T03:33:12.481Z,1001.28
2017-11-23T03:33:53.041Z,1001.26
2017-11-23T03:34:33.623Z,1001.25
2017-11-23T03:35:14.212Z,1001.3
2017-11-23T03:35:54.784Z,1001.23
2017-11-23T03:36:35.359Z,1001.26
2017-11-23T03:37:15.947Z,1001.22
2017-11-23T03:37:56.511Z,1001.21
2017-11-23T03:38:37.074Z,1001.23
2017-11-23T03:39:17.637Z,1001.22
2017-11-23T03:39:58.232Z,1001.21
2017-11-23T03:40:38.793Z,1001.2
2017-11-23T03:41:19.402Z,1001.26
2017-11-23T03:41:59.973Z,1001.25
2017-11-23T03:42:40.588Z,1001.24
2017-11-23T03:43:21.161Z,1001.22
2017-11-23T03:44:01.725Z,1001.23
2017-11-23T03:44:42.286Z,1001.23
2017-11-23T03:45:22.855Z,1001.22
2017-11-23T03:46:03.446Z,1001.25
2017-11-23T03:46:44.031Z,1001.23
2017-11-23T03:47:24.601Z,1001.23
2017-11-23T03:48:05.166Z,1001.23
2017-11-23T03:48:45.729Z,1001.23
2017-11-23T03:49:26.283Z,1001.28
2017-11-23T03:50:06.835Z,1001.22
2017-11-23T03:50:47.410Z,1001.26
2017-11-23T03:51:27.972Z,1001.28
2017-11-23T03:52:08.552Z,1001.24
2017-11-23T03:52:49.133Z,1001.22
2017-11-23T03:53:29.711Z,1001.23
2017-11-23T03:54:10.279Z,1001.27
2017-11-23T03:54:50.868Z,1001.23
2017-11-23T03:55:31.442Z,1001.25
2017-11-23T03:56:12.006Z,1001.24
2017-11-23T03:56:52.574Z,1001.26
2017-11-23T03:57:33.169Z,1001.26
2017-11-23T03:58:13.756Z,1001.26
2017-11-23T03:58:54.342Z,1001.26
2017-11-23T03:59:34.906Z,1001.25
2017-11-23T04:00:15.456Z,1001.2
2017-11-23T04:00:56.041Z,1001.24
2017-11-23T04:01:36.610Z,1001.26
2017-11-23T04:02:17.182Z,1001.27
2017-11-23T04:02:57.759Z,1001.24
2017-11-23T04:03:38.348Z,1001.23
2017-11-23T04:04:18.899Z,1001.2
2017-11-23T04:04:59.469Z,1001.24
2017-11-23T04:05:40.048Z,1001.19
2017-11-23T04:06:20.632Z,1001.25
2017-11-23T04:07:01.186Z,1001.25
2017-11-23T04:07:41.746Z,1001.3
2017-11-23T04:08:22.354Z,1001.2
2017-11-23T04:09:03.000Z,1001.22
2017-11-23T04:09:43.560Z,1001.23
2017-11-23T04:10:24.125Z,1001.24
2017-11-23T04:11:04.708Z,1001.27
2017-11-23T04:11:45.336Z,1001.25
2017-11-23T04:12:25.905Z,1001.24
2017-11-23T04:13:06.478Z,1001.23
2017-11-23T04:13:47.049Z,1001.23
2017-11-23T04:14:27.608Z,1001.19
2017-11-23T04:15:08.189Z,1001.18
2017-11-23T04:15:48.772Z,1001.15
2017-11-23T04:16:29.351Z,1001.18
2017-11-23T04:17:09.894Z,1001.17
2017-11-23T04:17:50.490Z,1001.19
2017-11-23T04:18:31.106Z,1001.15
2017-11-23T04:19:11.665Z,1001.2
2017-11-23T04:19:52.245Z,1001.16
2017-11-23T04:20:32.803Z,1001.14
2017-11-23T04:21:13.374Z,1001.12
2017-11-23T04:21:53.965Z,1001.16
2017-11-23T04:22:34.518Z,1001.2
2017-11-23T04:23:15.087Z,1001.14
2017-11-23T04:23:55.693Z,1001.14
2017-11-23T04:24:36.262Z,1001.15
2017-11-23T04:25:16.849Z,1001.11
2017-11-23T04:25:57.412Z,1001.13
2017-11-23T04:26:37.971Z,1001.1
2017-11-23T04:27:18.564Z,1001.03
2017-11-23T04:27:59.120Z,1001.08
2017-11-23T04:28:39.695Z,1001.06
2017-11-23T04:29:20.271Z,1001.05
2017-11-23T04:30:00.833Z,1001.04
2017-11-23T04:30:41.416Z,1001.04
2017-11-23T04:31:21.975Z,1000.96
2017-11-23T04:32:02.572Z,1000.98
2017-11-23T04:32:43.123Z,1001.03
2017-11-23T04:33:23.680Z,1000.98
2017-11-23T04:34:04.254Z,1001.01
2017-11-23T04:34:44.818Z,1000.96
2017-11-23T04:35:25.391Z,1000.96
2017-11-23T04:36:05.998Z,1001
2017-11-23T04:36:46.570Z,1000.99
2017-11-23T04:37:27.130Z,1000.96
2017-11-23T04:38:07.725Z,1000.96
2017-11-23T04:38:48.339Z,1000.96
2017-11-23T04:39:28.938Z,1000.98
2017-11-23T04:40:09.536Z,1000.97
2017-11-23T04:40:50.097Z,1001
2017-11-23T04:41:30.670Z,1001
2017-11-23T04:42:11.283Z,1001.02
2017-11-23T04:42:51.841Z,1001.02
2017-11-23T04:43:32.428Z,1001.08
2017-11-23T04:44:12.995Z,1001.05
2017-11-23T04:44:53.603Z,1001.05
2017-11-23T04:45:34.188Z,1001.07
2017-11-23T04:46:14.761Z,1001.09
2017-11-23T04:46:55.356Z,1001.08
2017-11-23T04:47:35.947Z,1001.1
2017-11-23T04:48:16.557Z,1001.1
2017-11-23T04:48:57.147Z,1001.13
2017-11-23T04:49:37.711Z,1001.16
2017-11-23T04:50:18.278Z,1001.23
2017-11-23T04:50:58.838Z,1001.2
2017-11-23T04:51:39.416Z,1001.2
2017-11-23T04:52:19.984Z,1001.17
2017-11-23T04:53:00.552Z,1001.15
2017-11-23T04:53:41.173Z,1001.1
2017-11-23T04:54:21.749Z,1001.09
2017-11-23T04:55:02.317Z,1001.11
2017-11-23T04:55:42.880Z,1001.12
2017-11-23T04:56:23.447Z,1001.09
2017-11-23T04:57:04.033Z,1001.07
2017-11-23T04:57:44.616Z,1001.09
2017-11-23T04:58:25.207Z,1001.04
2017-11-23T04:59:05.782Z,1000.99
2017-11-23T04:59:46.418Z,1001.02
2017-11-23T05:00:26.986Z,1000.99
2017-11-23T05:01:07.567Z,1000.97
2017-11-23T05:01:48.138Z,1001
2017-11-23T05:02:28.725Z,1000.94
2017-11-23T05:03:09.304Z,1000.96
2017-11-23T05:03:49.924Z,1000.97
2017-11-23T05:04:30.480Z,1000.95
2017-11-23T05:05:11.046Z,1000.98
2017-11-23T05:05:51.611Z,1001.01
2017-11-23T05:06:32.174Z,1000.99
2017-11-23T05:07:12.734Z,1000.96
2017-11-23T05:07:53.317Z,1000.95
2017-11-23T05:08:33.904Z,1000.98
2017-11-23T05:09:14.470Z,1000.97
2017-11-23T05:09:55.027Z,1000.97
2017-11-23T05:10:35.636Z,1000.98
2017-11-23T05:11:16.246Z,1001.01
2017-11-23T05:11:56.825Z,1000.97
2017-11-23T05:12:37.431Z,1000.98
2017-11-23T05:13:18.000Z,1001.02
2017-11-23T05:13:58.570Z,1001
2017-11-23T05:14:39.186Z,1001.03
2017-11-23T05:15:19.751Z,1001.05
2017-11-23T05:16:00.317Z,1001
2017-11-23T05:16:40.917Z,1001
2017-11-23T05:17:21.499Z,1001.01
2017-11-23T05:18:02.116Z,1001.07
2017-11-23T05:18:42.706Z,1001.08
2017-11-23T05:19:23.285Z,1001.08
2017-11-23T05:20:03.850Z,1001.08
2017-11-23T05:20:44.443Z,1001.08
2017-11-23T05:21:25.001Z,1001.09
2017-11-23T05:22:05.553Z,1001.1
2017-11-23T05:22:46.132Z,1001.06
2017-11-23T05:23:26.688Z,1001.07
2017-11-23T05:24:07.287Z,1001.06
2017-11-23T05:24:47.856Z,1001.09
2017-11-23T05:25:28.412Z,1001.02
2017-11-23T05:26:09.032Z,1001.02
2017-11-23T05:26:49.677Z,1001.01
2017-11-23T05:27:30.305Z,1001.04
2017-11-23T05:28:10.869Z,1001.02
2017-11-23T05:28:51.456Z,1000.99
2017-11-23T05:29:32.035Z,1000.99
2017-11-23T05:30:12.600Z,1000.97
2017-11-23T05:30:53.182Z,1000.96
2017-11-23T05:31:33.775Z,1001
2017-11-23T05:32:14.393Z,1000.96
2017-11-23T05:32:54.976Z,1000.97
2017-11-23T05:33:35.542Z,1000.96
2017-11-23T05:34:16.113Z,1000.94
2017-11-23T05:34:56.685Z,1000.95
2017-11-23T05:35:37.256Z,1000.98
2017-11-23T05:36:17.826Z,1000.99
2017-11-23T05:36:58.385Z,1001
2017-11-23T05:37:38.957Z,1001.02
2017-11-23T05:38:19.517Z,1001.07
2017-11-23T05:39:00.088Z,1001.09
2017-11-23T05:39:40.664Z,1001.08
2017-11-23T05:40:21.266Z,1001.07
2017-11-23T05:41:01.839Z,1001.04
2017-11-23T05:41:42.417Z,1001.06
2017-11-23T05:42:23.007Z,1001.03
2017-11-23T05:43:03.611Z,1001.02
2017-11-23T05:43:44.204Z,1001.02
2017-11-23T05:44:24.820Z,1000.99
2017-11-23T05:45:05.403Z,1000.99
2017-11-23T05:45:45.998Z,1000.98
2017-11-23T05:46:26.590Z,1000.97
2017-11-23T05:47:07.145Z,1001.04
2017-11-23T05:47:47.709Z,1000.99
2017-11-23T05:48:28.283Z,1000.98
2017-11-23T05:49:08.852Z,1001.02
2017-11-23T05:49:49.460Z,1000.99
2017-11-23T05:50:30.052Z,1001
2017-11-23T05:51:10.620Z,1000.94
2017-11-23T05:51:51.204Z,1000.96
2017-11-23T05:52:31.765Z,1000.96
2017-11-23T05:53:12.326Z,1000.96
2017-11-23T05:53:52.895Z,1000.95
2017-11-23T05:54:33.493Z,1000.96
2017-11-23T05:55:14.081Z,1000.96
2017-11-23T05:55:54.655Z,1000.93
2017-11-23T05:56:35.215Z,1000.86
2017-11-23T05:57:15.773Z,1000.91
2017-11-23T05:57:56.346Z,1000.94
2017-11-23T05:58:36.928Z,1000.94
2017-11-23T05:59:17.500Z,1000.97
2017-11-23T05:59:58.099Z,1000.98
2017-11-23T06:00:38.673Z,1001
2017-11-23T06:01:19.237Z,1000.96
2017-11-23T06:01:59.823Z,1001
2017-11-23T06:02:40.414Z,1001.01
2017-11-23T06:03:20.991Z,1001.02
2017-11-23T06:04:01.578Z,1001.09
2017-11-23T06:04:42.182Z,1001.1
2017-11-23T06:05:22.747Z,1001.12
2017-11-23T06:06:03.341Z,1001.15
2017-11-23T06:06:43.886Z,1001.11
2017-11-23T06:07:24.449Z,1001.11
2017-11-23T06:08:05.029Z,1001.12
2017-11-23T06:08:45.605Z,1001.14
2017-11-23T06:09:26.166Z,1001.19
2017-11-23T06:10:06.735Z,1001.17
2017-11-23T06:10:47.321Z,1001.12
2017-11-23T06:11:27.879Z,1001.12
2017-11-23T06:12:08.536Z,1001.1
2017-11-23T06:12:49.100Z,1001.09
2017-11-23T06:13:29.661Z,1001.03
2017-11-23T06:14:10.220Z,1001.05
2017-11-23T06:14:50.796Z,1000.99
2017-11-23T06:15:31.349Z,1001.04
2017-11-23T06:16:11.925Z,1001.06
2017-11-23T06:16:52.507Z,1001.05
2017-11-23T06:17:33.065Z,1001.07
2017-11-23T06:18:13.635Z,1001.09
2017-11-23T06:18:54.190Z,1001.1
2017-11-23T06:19:34.742Z,1001.05
2017-11-23T06:20:15.372Z,1001.14
2017-11-23T06:20:55.955Z,1001.14
2017-11-23T06:21:36.514Z,1001.21
2017-11-23T06:22:17.099Z,1001.19
2017-11-23T06:22:57.674Z,1001.23
2017-11-23T06:23:38.229Z,1001.24
2017-11-23T06:24:18.796Z,1001.25
2017-11-23T06:24:59.366Z,1001.24
2017-11-23T06:25:39.986Z,1001.26
2017-11-23T06:26:20.546Z,1001.22
2017-11-23T06:27:01.127Z,1001.19
2017-11-23T06:27:41.690Z,1001.24
2017-11-23T06:28:22.260Z,1001.19
2017-11-23T06:29:02.833Z,1001.14
2017-11-23T06:29:43.396Z,1001.12
2017-11-23T06:30:23.974Z,1001.08
2017-11-23T06:31:04.538Z,1001.04
2017-11-23T06:31:45.124Z,1001.06
2017-11-23T06:32:25.736Z,1001.05
2017-11-23T06:33:06.331Z,1001.05
2017-11-23T06:33:46.899Z,1001.05
2017-11-23T06:34:27.480Z,1001.06
2017-11-23T06:35:08.053Z,1001
2017-11-23T06:35:48.611Z,1000.99
2017-11-23T06:36:29.233Z,1000.99
2017-11-23T06:37:09.816Z,1001.03
2017-11-23T06:37:50.405Z,1000.98
2017-11-23T06:38:30.988Z,1000.95
2017-11-23T06:39:11.574Z,1000.93
2017-11-23T06:39:52.140Z,1000.86
2017-11-23T06:40:32.700Z,1000.86
2017-11-23T06:41:13.257Z,1000.83
2017-11-23T06:41:53.838Z,1000.88
2017-11-23T06:42:34.455Z,1000.84
2017-11-23T06:43:15.055Z,1000.82
2017-11-23T06:43:55.610Z,1000.86
2017-11-23T06:44:36.205Z,1000.88
2017-11-23T06:45:16.766Z,1000.92
2017-11-23T06:45:57.369Z,1000.93
2017-11-23T06:46:37.922Z,1000.95
2017-11-23T06:47:18.503Z,1000.97
2017-11-23T06:47:59.096Z,1000.92
2017-11-23T06:48:39.668Z,1000.94
2017-11-23T06:49:20.254Z,1000.9
2017-11-23T06:50:00.835Z,1000.86
2017-11-23T06:50:41.414Z,1000.91
2017-11-23T06:51:21.981Z,1000.88
2017-11-23T06:52:02.555Z,1000.91
2017-11-23T06:52:43.118Z,1000.94
2017-11-23T06:53:23.689Z,1000.92
2017-11-23T06:54:04.238Z,1000.95
2017-11-23T06:54:44.818Z,1000.95
2017-11-23T06:55:25.404Z,1000.97
2017-11-23T06:56:05.986Z,1000.99
2017-11-23T06:56:46.551Z,1000.96
2017-11-23T06:57:27.124Z,1001.01
2017-11-23T06:58:07.704Z,1001.03
2017-11-23T06:58:48.336Z,1001.01
2017-11-23T06:59:28.884Z,1001.01
2017-11-23T07:00:09.469Z,1001.04
2017-11-23T07:00:50.032Z,1001.04
2017-11-23T07:01:30.591Z,1001.04
2017-11-23T07:02:11.160Z,1000.99
2017-11-23T07:02:51.751Z,1001
2017-11-23T07:03:32.330Z,1001.01
2017-11-23T07:04:12.941Z,1001.01
2017-11-23T07:04:53.528Z,1001
2017-11-23T07:05:34.109Z,1001.02
2017-11-23T07:06:14.703Z,1001.01
2017-11-23T07:06:55.290Z,1001.03
2017-11-23T07:07:35.853Z,1001.07
2017-11-23T07:08:16.438Z,1001.07
2017-11-23T07:08:57.002Z,1001.08
2017-11-23T07:09:37.589Z,1001.05
2017-11-23T07:10:18.201Z,1001.04
2017-11-23T07:10:58.781Z,1001.03
2017-11-23T07:11:39.352Z,1001.08
2017-11-23T07:12:19.922Z,1001.05
2017-11-23T07:13:00.513Z,1001.06
2017-11-23T07:13:41.108Z,1001.06
2017-11-23T07:14:21.682Z,1001.02
2017-11-23T07:15:02.258Z,1001.08
2017-11-23T07:15:42.842Z,1000.99
2017-11-23T07:16:23.403Z,1001
2017-11-23T07:17:04.046Z,1001.01
2017-11-23T07:17:44.642Z,1001.04
2017-11-23T07:18:25.204Z,1001.04
2017-11-23T07:19:05.766Z,1001.03
2017-11-23T07:19:46.350Z,1001.05
2017-11-23T07:20:26.918Z,1001.05
2017-11-23T07:21:07.524Z,1001.02
2017-11-23T07:21:48.121Z,1001.05
2017-11-23T07:22:28.694Z,1001.02
2017-11-23T07:23:09.309Z,1001.02
2017-11-23T07:23:49.940Z,1001.05
2017-11-23T07:24:30.510Z,1001.06
2017-11-23T07:25:11.098Z,1001.06
2017-11-23T07:25:51.672Z,1001.06
2017-11-23T07:26:32.220Z,1001.03
2017-11-23T07:27:12.787Z,1001.06
2017-11-23T07:27:53.381Z,1001.05
2017-11-23T07:28:33.944Z,1001.06
2017-11-23T07:29:14.575Z,1001.11
2017-11-23T07:29:55.342Z,1001.09
2017-11-23T07:30:35.911Z,1001.03
2017-11-23T07:31:16.469Z,1001
2017-11-23T07:31:57.073Z,1001.06
2017-11-23T07:32:37.742Z,1000.98
2017-11-23T07:33:18.285Z,1000.94
2017-11-23T07:33:58.856Z,1000.95
2017-11-23T07:34:39.426Z,1000.96
2017-11-23T07:35:20.028Z,1000.93
2017-11-23T07:36:00.604Z,1000.89
2017-11-23T07:36:41.178Z,1000.89
2017-11-23T07:37:21.754Z,1000.9
2017-11-23T07:38:02.338Z,1000.84
2017-11-23T07:38:42.905Z,1000.86
2017-11-23T07:39:23.485Z,1000.86
2017-11-23T07:40:04.120Z,1000.84
2017-11-23T07:40:44.723Z,1000.83
2017-11-23T07:41:25.300Z,1000.78
2017-11-23T07:42:05.864Z,1000.79
2017-11-23T07:42:46.464Z,1000.8
2017-11-23T07:43:27.026Z,1000.75
2017-11-23T07:44:07.594Z,1000.74
2017-11-23T07:44:48.191Z,1000.73
2017-11-23T07:45:28.793Z,1000.76
2017-11-23T07:46:09.363Z,1000.75
2017-11-23T07:46:49.979Z,1000.76
2017-11-23T07:47:30.601Z,1000.77
2017-11-23T07:48:11.240Z,1000.79
2017-11-23T07:48:51.867Z,1000.79
2017-11-23T07:49:32.425Z,1000.78
2017-11-23T07:50:13.069Z,1000.77
2017-11-23T07:50:53.736Z,1000.85
2017-11-23T07:51:34.306Z,1000.73
2017-11-23T07:52:14.899Z,1000.73
2017-11-23T07:52:55.481Z,1000.79
2017-11-23T07:53:36.063Z,1000.77
2017-11-23T07:54:16.745Z,1000.82
2017-11-23T07:54:57.406Z,1000.77
2017-11-23T07:55:37.960Z,1000.73
2017-11-23T07:56:18.539Z,1000.69
2017-11-23T07:56:59.109Z,1000.69
2017-11-23T07:57:39.681Z,1000.68
2017-11-23T07:58:20.274Z,1000.73
2017-11-23T07:59:00.851Z,1000.72
2017-11-23T07:59:41.443Z,1000.73
2017-11-23T08:00:22.056Z,1000.76
2017-11-23T08:01:02.624Z,1000.75
2017-11-23T08:01:43.218Z,1000.76
2017-11-23T08:02:23.803Z,1000.85
2017-11-23T08:03:04.393Z,1000.85
2017-11-23T08:03:44.962Z,1000.83
2017-11-23T08:04:25.570Z,1000.87
2017-11-23T08:05:06.138Z,1000.87
2017-11-23T08:05:46.710Z,1000.85
2017-11-23T08:06:27.313Z,1000.86
2017-11-23T08:07:07.872Z,1000.88
2017-11-23T08:07:48.514Z,1000.89
2017-11-23T08:08:29.117Z,1000.92
2017-11-23T08:09:09.723Z,1000.95
2017-11-23T08:09:50.283Z,1000.93
2017-11-23T08:10:30.852Z,1000.91
2017-11-23T08:11:11.420Z,1000.96
2017-11-23T08:11:51.990Z,1000.91
2017-11-23T08:12:32.557Z,1000.93